sensor_id;sensor_type;location;lat;lon;timestamp;pressure;altitude;pressure_sealevel;temperature;humidity
23363;BME280;11853;48.080;11.960;2023-05-25T00:00:17;95078.19;;;13.97;100.00
23363;BME280;11853;48.080;11.960;2023-05-25T00:02:43;95078.88;;;13.83;100.00
23363;BME280;11853;48.080;11.960;2023-05-25T00:05:11;95078.34;;;13.79;100.00
23363;BME280;11853;48.080;11.960;2023-05-25T00:07:37;95088.53;;;13.75;100.00
23363;BME280;11853;48.080;11.960;2023-05-25T00:10:04;95088.69;;;13.66;100.00
23363;BME280;11853;48.080;11.960;2023-05-25T00:12:31;95096.69;;;13.58;100.00
23363;BME280;11853;48.080;11.960;2023-05-25T00:14:57;95094.38;;;13.63;100.00
23363;BME280;11853;48.080;11.960;2023-05-25T00:17:23;95092.84;;;13.60;100.00
23363;BME280;11853;48.080;11.960;2023-05-25T00:19:49;95095.16;;;13.47;100.00
23363;BME280;11853;48.080;11.960;2023-05-25T00:22:15;95097.16;;;13.53;100.00
23363;BME280;11853;48.080;11.960;2023-05-25T00:24:41;95088.53;;;13.59;100.00
23363;BME280;11853;48.080;11.960;2023-05-25T00:27:06;95091.50;;;13.64;100.00
23363;BME280;11853;48.080;11.960;2023-05-25T00:29:34;95090.69;;;13.64;100.00
23363;BME280;11853;48.080;11.960;2023-05-25T00:31:59;95087.22;;;13.71;100.00
23363;BME280;11853;48.080;11.960;2023-05-25T00:34:25;95090.22;;;13.68;100.00
23363;BME280;11853;48.080;11.960;2023-05-25T00:36:51;95083.88;;;13.69;100.00
23363;BME280;11853;48.080;11.960;2023-05-25T00:39:18;95082.53;;;13.65;100.00
23363;BME280;11853;48.080;11.960;2023-05-25T00:41:45;95086.38;;;13.63;100.00
23363;BME280;11853;48.080;11.960;2023-05-25T00:44:11;95091.50;;;13.56;100.00
23363;BME280;11853;48.080;11.960;2023-05-25T00:46:47;95084.69;;;13.54;100.00
23363;BME280;11853;48.080;11.960;2023-05-25T00:49:13;95084.38;;;13.57;100.00
23363;BME280;11853;48.080;11.960;2023-05-25T00:51:39;95081.84;;;13.47;100.00
23363;BME280;11853;48.080;11.960;2023-05-25T00:54:06;95092.34;;;13.48;100.00
23363;BME280;11853;48.080;11.960;2023-05-25T00:56:34;95083.84;;;13.45;100.00
23363;BME280;11853;48.080;11.960;2023-05-25T00:59:05;95075.00;;;13.44;100.00
23363;BME280;11853;48.080;11.960;2023-05-25T01:01:34;95076.19;;;13.58;100.00
23363;BME280;11853;48.080;11.960;2023-05-25T01:04:08;95083.34;;;13.58;100.00
23363;BME280;11853;48.080;11.960;2023-05-25T01:06:35;95082.34;;;13.42;100.00
23363;BME280;11853;48.080;11.960;2023-05-25T01:09:04;95083.84;;;13.45;100.00
23363;BME280;11853;48.080;11.960;2023-05-25T01:11:35;95077.81;;;13.26;100.00
23363;BME280;11853;48.080;11.960;2023-05-25T01:14:01;95080.00;;;13.31;100.00
23363;BME280;11853;48.080;11.960;2023-05-25T01:16:27;95080.34;;;13.44;100.00
23363;BME280;11853;48.080;11.960;2023-05-25T01:18:54;95075.84;;;13.37;100.00
23363;BME280;11853;48.080;11.960;2023-05-25T01:22:07;95073.16;;;13.28;100.00
23363;BME280;11853;48.080;11.960;2023-05-25T01:27:06;95070.81;;;13.25;100.00
23363;BME280;11853;48.080;11.960;2023-05-25T01:29:33;95070.09;;;13.15;100.00
23363;BME280;11853;48.080;11.960;2023-05-25T01:32:01;95075.91;;;13.02;100.00
23363;BME280;11853;48.080;11.960;2023-05-25T01:34:29;95070.03;;;12.99;100.00
23363;BME280;11853;48.080;11.960;2023-05-25T01:36:55;95076.22;;;12.99;100.00
23363;BME280;11853;48.080;11.960;2023-05-25T01:39:21;95083.75;;;13.12;100.00
23363;BME280;11853;48.080;11.960;2023-05-25T01:41:47;95075.06;;;13.10;100.00
23363;BME280;11853;48.080;11.960;2023-05-25T01:44:13;95063.06;;;12.98;100.00
23363;BME280;11853;48.080;11.960;2023-05-25T01:46:39;95066.38;;;12.92;100.00
23363;BME280;11853;48.080;11.960;2023-05-25T01:54:46;95071.72;;;13.00;100.00
23363;BME280;11853;48.080;11.960;2023-05-25T01:57:14;95077.00;;;12.83;100.00
23363;BME280;11853;48.080;11.960;2023-05-25T01:59:43;95080.31;;;12.77;100.00
23363;BME280;11853;48.080;11.960;2023-05-25T02:02:12;95072.81;;;12.81;100.00
23363;BME280;11853;48.080;11.960;2023-05-25T02:04:40;95073.19;;;12.86;100.00
23363;BME280;11853;48.080;11.960;2023-05-25T02:07:06;95073.66;;;12.81;100.00
23363;BME280;11853;48.080;11.960;2023-05-25T02:09:31;95076.47;;;12.80;100.00
23363;BME280;11853;48.080;11.960;2023-05-25T02:11:57;95072.97;;;12.71;100.00
23363;BME280;11853;48.080;11.960;2023-05-25T02:14:23;95072.13;;;12.71;100.00
23363;BME280;11853;48.080;11.960;2023-05-25T02:16:49;95071.78;;;12.66;100.00
23363;BME280;11853;48.080;11.960;2023-05-25T02:19:15;95074.22;;;12.59;100.00
23363;BME280;11853;48.080;11.960;2023-05-25T02:21:41;95079.16;;;12.80;100.00
23363;BME280;11853;48.080;11.960;2023-05-25T02:24:06;95074.78;;;12.71;100.00
23363;BME280;11853;48.080;11.960;2023-05-25T02:26:36;95070.00;;;12.82;100.00
23363;BME280;11853;48.080;11.960;2023-05-25T02:29:02;95074.63;;;12.72;100.00
23363;BME280;11853;48.080;11.960;2023-05-25T02:31:28;95072.31;;;12.77;100.00
23363;BME280;11853;48.080;11.960;2023-05-25T02:33:54;95071.28;;;12.70;100.00
23363;BME280;11853;48.080;11.960;2023-05-25T02:36:20;95065.25;;;12.60;100.00
23363;BME280;11853;48.080;11.960;2023-05-25T02:38:46;95077.41;;;12.62;100.00
23363;BME280;11853;48.080;11.960;2023-05-25T02:41:23;95078.44;;;12.70;100.00
23363;BME280;11853;48.080;11.960;2023-05-25T02:43:50;95072.56;;;12.58;100.00
23363;BME280;11853;48.080;11.960;2023-05-25T02:46:16;95074.34;;;12.49;100.00
23363;BME280;11853;48.080;11.960;2023-05-25T02:48:41;95072.97;;;12.71;100.00
23363;BME280;11853;48.080;11.960;2023-05-25T02:51:08;95074.75;;;12.62;100.00
23363;BME280;11853;48.080;11.960;2023-05-25T02:53:33;95070.56;;;12.60;100.00
23363;BME280;11853;48.080;11.960;2023-05-25T02:55:59;95083.84;;;12.52;100.00
23363;BME280;11853;48.080;11.960;2023-05-25T02:58:26;95088.53;;;12.58;100.00
23363;BME280;11853;48.080;11.960;2023-05-25T03:00:52;95086.38;;;12.61;100.00
23363;BME280;11853;48.080;11.960;2023-05-25T03:03:18;95092.06;;;12.67;100.00
23363;BME280;11853;48.080;11.960;2023-05-25T03:05:44;95091.88;;;12.60;100.00
23363;BME280;11853;48.080;11.960;2023-05-25T03:08:10;95094.34;;;12.61;100.00
23363;BME280;11853;48.080;11.960;2023-05-25T03:10:35;95091.03;;;12.59;100.00
23363;BME280;11853;48.080;11.960;2023-05-25T03:13:01;95100.00;;;12.58;100.00
23363;BME280;11853;48.080;11.960;2023-05-25T03:15:27;95096.16;;;12.53;100.00
23363;BME280;11853;48.080;11.960;2023-05-25T03:17:52;95097.50;;;12.57;100.00
23363;BME280;11853;48.080;11.960;2023-05-25T03:20:21;95095.81;;;12.56;100.00
23363;BME280;11853;48.080;11.960;2023-05-25T03:22:49;95094.69;;;12.58;100.00
23363;BME280;11853;48.080;11.960;2023-05-25T03:25:14;95078.94;;;12.65;100.00
23363;BME280;11853;48.080;11.960;2023-05-25T03:27:40;95079.41;;;12.60;100.00
23363;BME280;11853;48.080;11.960;2023-05-25T03:30:06;95081.88;;;12.54;100.00
23363;BME280;11853;48.080;11.960;2023-05-25T03:32:32;95076.88;;;12.59;100.00
23363;BME280;11853;48.080;11.960;2023-05-25T03:34:58;95088.34;;;12.51;100.00
23363;BME280;11853;48.080;11.960;2023-05-25T03:37:24;95086.38;;;12.61;100.00
23363;BME280;11853;48.080;11.960;2023-05-25T03:39:49;95092.25;;;12.73;100.00
23363;BME280;11853;48.080;11.960;2023-05-25T03:42:15;95081.09;;;12.70;100.00
23363;BME280;11853;48.080;11.960;2023-05-25T03:44:41;95080.94;;;12.71;100.00
23363;BME280;11853;48.080;11.960;2023-05-25T03:47:06;95074.25;;;12.67;100.00
23363;BME280;11853;48.080;11.960;2023-05-25T03:49:32;95080.25;;;12.69;100.00
23363;BME280;11853;48.080;11.960;2023-05-25T03:51:58;95077.91;;;12.66;100.00
23363;BME280;11853;48.080;11.960;2023-05-25T03:54:26;95076.41;;;12.63;100.00
23363;BME280;11853;48.080;11.960;2023-05-25T03:57:10;95080.53;;;12.58;100.00
23363;BME280;11853;48.080;11.960;2023-05-25T03:59:36;95092.19;;;12.57;100.00
23363;BME280;11853;48.080;11.960;2023-05-25T04:02:01;95077.69;;;12.51;100.00
23363;BME280;11853;48.080;11.960;2023-05-25T04:04:27;95091.81;;;12.52;100.00
23363;BME280;11853;48.080;11.960;2023-05-25T04:06:54;95085.16;;;12.48;100.00
23363;BME280;11853;48.080;11.960;2023-05-25T04:09:19;95084.94;;;12.75;100.00
23363;BME280;11853;48.080;11.960;2023-05-25T04:11:45;95083.28;;;12.74;100.00
23363;BME280;11853;48.080;11.960;2023-05-25T04:14:11;95088.75;;;12.73;100.00
23363;BME280;11853;48.080;11.960;2023-05-25T04:16:37;95091.88;;;12.60;100.00
23363;BME280;11853;48.080;11.960;2023-05-25T04:19:05;95081.69;;;12.55;100.00
23363;BME280;11853;48.080;11.960;2023-05-25T04:21:30;95083.56;;;12.63;100.00
23363;BME280;11853;48.080;11.960;2023-05-25T04:23:56;95072.91;;;12.63;100.00
23363;BME280;11853;48.080;11.960;2023-05-25T04:26:22;95079.25;;;12.62;100.00
23363;BME280;11853;48.080;11.960;2023-05-25T04:28:47;95087.38;;;12.60;100.00
23363;BME280;11853;48.080;11.960;2023-05-25T04:31:13;95088.72;;;12.65;100.00
23363;BME280;11853;48.080;11.960;2023-05-25T04:33:38;95087.94;;;12.72;100.00
23363;BME280;11853;48.080;11.960;2023-05-25T04:36:05;95089.59;;;12.73;100.00
23363;BME280;11853;48.080;11.960;2023-05-25T04:38:31;95097.28;;;12.76;100.00
23363;BME280;11853;48.080;11.960;2023-05-25T04:40:58;95099.44;;;12.81;100.00
23363;BME280;11853;48.080;11.960;2023-05-25T04:43:26;95092.94;;;12.75;100.00
23363;BME280;11853;48.080;11.960;2023-05-25T04:45:51;95093.75;;;12.68;100.00
23363;BME280;11853;48.080;11.960;2023-05-25T04:48:18;95095.91;;;12.72;100.00
23363;BME280;11853;48.080;11.960;2023-05-25T04:50:45;95104.88;;;12.63;100.00
23363;BME280;11853;48.080;11.960;2023-05-25T04:53:10;95102.88;;;12.65;100.00
23363;BME280;11853;48.080;11.960;2023-05-25T04:55:36;95112.53;;;12.66;100.00
23363;BME280;11853;48.080;11.960;2023-05-25T04:58:01;95090.59;;;12.72;100.00
23363;BME280;11853;48.080;11.960;2023-05-25T05:00:27;95094.13;;;12.81;100.00
23363;BME280;11853;48.080;11.960;2023-05-25T05:02:57;95097.28;;;12.76;100.00
23363;BME280;11853;48.080;11.960;2023-05-25T05:05:23;95104.25;;;12.77;100.00
23363;BME280;11853;48.080;11.960;2023-05-25T05:07:49;95105.09;;;12.78;100.00
23363;BME280;11853;48.080;11.960;2023-05-25T05:10:14;95098.25;;;12.75;100.00
23363;BME280;11853;48.080;11.960;2023-05-25T05:12:40;95108.59;;;12.78;100.00
23363;BME280;11853;48.080;11.960;2023-05-25T05:15:06;95118.88;;;12.73;100.00
23363;BME280;11853;48.080;11.960;2023-05-25T05:17:31;95113.53;;;12.73;100.00
23363;BME280;11853;48.080;11.960;2023-05-25T05:19:58;95122.72;;;12.79;100.00
23363;BME280;11853;48.080;11.960;2023-05-25T05:22:23;95111.75;;;12.74;100.00
23363;BME280;11853;48.080;11.960;2023-05-25T05:24:49;95124.72;;;12.77;100.00
23363;BME280;11853;48.080;11.960;2023-05-25T05:27:15;95130.06;;;12.77;100.00
23363;BME280;11853;48.080;11.960;2023-05-25T05:29:41;95130.16;;;12.67;100.00
23363;BME280;11853;48.080;11.960;2023-05-25T05:32:07;95123.38;;;12.73;100.00
23363;BME280;11853;48.080;11.960;2023-05-25T05:34:33;95120.69;;;12.73;100.00
23363;BME280;11853;48.080;11.960;2023-05-25T05:36:58;95117.63;;;12.85;100.00
23363;BME280;11853;48.080;11.960;2023-05-25T05:39:27;95122.28;;;12.92;100.00
23363;BME280;11853;48.080;11.960;2023-05-25T05:41:53;95116.38;;;12.72;100.00
23363;BME280;11853;48.080;11.960;2023-05-25T05:44:22;95123.59;;;12.88;100.00
23363;BME280;11853;48.080;11.960;2023-05-25T05:46:48;95119.66;;;13.00;100.00
23363;BME280;11853;48.080;11.960;2023-05-25T05:49:13;95124.63;;;12.95;100.00
23363;BME280;11853;48.080;11.960;2023-05-25T05:51:39;95126.19;;;13.05;100.00
23363;BME280;11853;48.080;11.960;2023-05-25T05:54:04;95128.81;;;12.97;100.00
23363;BME280;11853;48.080;11.960;2023-05-25T05:56:30;95132.78;;;12.93;100.00
23363;BME280;11853;48.080;11.960;2023-05-25T05:58:56;95144.75;;;12.89;100.00
23363;BME280;11853;48.080;11.960;2023-05-25T06:01:22;95139.88;;;12.84;100.00
23363;BME280;11853;48.080;11.960;2023-05-25T06:03:48;95136.25;;;12.85;100.00
23363;BME280;11853;48.080;11.960;2023-05-25T06:06:14;95142.41;;;12.86;100.00
23363;BME280;11853;48.080;11.960;2023-05-25T06:08:41;95137.91;;;12.87;100.00
23363;BME280;11853;48.080;11.960;2023-05-25T06:11:07;95138.28;;;12.92;100.00
23363;BME280;11853;48.080;11.960;2023-05-25T06:13:32;95134.28;;;12.96;100.00
23363;BME280;11853;48.080;11.960;2023-05-25T06:15:58;95143.97;;;12.97;100.00
23363;BME280;11853;48.080;11.960;2023-05-25T06:18:24;95147.78;;;12.94;100.00
23363;BME280;11853;48.080;11.960;2023-05-25T06:20:49;95150.44;;;12.94;100.00
23363;BME280;11853;48.080;11.960;2023-05-25T06:23:15;95153.94;;;12.95;100.00
23363;BME280;11853;48.080;11.960;2023-05-25T06:25:42;95149.84;;;13.08;100.00
23363;BME280;11853;48.080;11.960;2023-05-25T06:28:07;95155.81;;;13.02;100.00
23363;BME280;11853;48.080;11.960;2023-05-25T06:30:33;95157.31;;;13.05;100.00
23363;BME280;11853;48.080;11.960;2023-05-25T06:32:58;95155.81;;;13.02;100.00
23363;BME280;11853;48.080;11.960;2023-05-25T06:35:24;95164.25;;;12.98;100.00
23363;BME280;11853;48.080;11.960;2023-05-25T06:37:50;95167.59;;;13.00;100.00
23363;BME280;11853;48.080;11.960;2023-05-25T06:40:15;95171.25;;;12.99;100.00
23363;BME280;11853;48.080;11.960;2023-05-25T06:42:41;95171.56;;;12.96;100.00
23363;BME280;11853;48.080;11.960;2023-05-25T06:45:08;95174.13;;;13.05;100.00
23363;BME280;11853;48.080;11.960;2023-05-25T06:47:34;95178.13;;;13.10;100.00
23363;BME280;11853;48.080;11.960;2023-05-25T06:49:59;95174.78;;;13.07;100.00
23363;BME280;11853;48.080;11.960;2023-05-25T06:52:25;95181.97;;;13.15;100.00
23363;BME280;11853;48.080;11.960;2023-05-25T06:54:54;95173.31;;;13.13;100.00
23363;BME280;11853;48.080;11.960;2023-05-25T06:57:21;95172.38;;;13.22;100.00
23363;BME280;11853;48.080;11.960;2023-05-25T06:59:47;95180.31;;;13.14;100.00
23363;BME280;11853;48.080;11.960;2023-05-25T07:02:13;95182.59;;;13.01;100.00
23363;BME280;11853;48.080;11.960;2023-05-25T07:04:38;95197.81;;;13.17;100.00
23363;BME280;11853;48.080;11.960;2023-05-25T07:07:04;95201.31;;;13.17;100.00
23363;BME280;11853;48.080;11.960;2023-05-25T07:09:31;95202.03;;;13.27;100.00
23363;BME280;11853;48.080;11.960;2023-05-25T07:11:56;95196.41;;;13.31;100.00
23363;BME280;11853;48.080;11.960;2023-05-25T07:14:22;95196.06;;;13.25;100.00
23363;BME280;11853;48.080;11.960;2023-05-25T07:16:47;95199.34;;;13.19;100.00
23363;BME280;11853;48.080;11.960;2023-05-25T07:19:13;95203.28;;;13.15;100.00
23363;BME280;11853;48.080;11.960;2023-05-25T07:21:38;95197.28;;;13.05;100.00
23363;BME280;11853;48.080;11.960;2023-05-25T07:24:04;95192.59;;;13.07;100.00
23363;BME280;11853;48.080;11.960;2023-05-25T07:26:31;95197.66;;;13.18;100.00
23363;BME280;11853;48.080;11.960;2023-05-25T07:28:57;95199.56;;;13.26;100.00
23363;BME280;11853;48.080;11.960;2023-05-25T07:31:23;95203.41;;;13.32;100.00
23363;BME280;11853;48.080;11.960;2023-05-25T07:33:48;95198.41;;;13.28;100.00
23363;BME280;11853;48.080;11.960;2023-05-25T07:36:14;95200.75;;;13.32;100.00
23363;BME280;11853;48.080;11.960;2023-05-25T07:38:40;95200.53;;;13.25;100.00
23363;BME280;11853;48.080;11.960;2023-05-25T07:41:06;95201.22;;;13.27;100.00
23363;BME280;11853;48.080;11.960;2023-05-25T07:43:32;95199.84;;;13.23;100.00
23363;BME280;11853;48.080;11.960;2023-05-25T07:45:57;95198.75;;;13.42;100.00
23363;BME280;11853;48.080;11.960;2023-05-25T07:48:25;95207.25;;;13.37;100.00
23363;BME280;11853;48.080;11.960;2023-05-25T07:50:51;95209.75;;;13.39;100.00
23363;BME280;11853;48.080;11.960;2023-05-25T07:53:16;95210.78;;;13.46;100.00
23363;BME280;11853;48.080;11.960;2023-05-25T07:55:42;95208.22;;;13.36;100.00
23363;BME280;11853;48.080;11.960;2023-05-25T07:58:07;95203.47;;;13.48;100.00
23363;BME280;11853;48.080;11.960;2023-05-25T08:00:33;95218.94;;;13.44;100.00
23363;BME280;11853;48.080;11.960;2023-05-25T08:02:58;95215.63;;;13.42;100.00
23363;BME280;11853;48.080;11.960;2023-05-25T08:05:26;95220.28;;;13.48;100.00
23363;BME280;11853;48.080;11.960;2023-05-25T08:07:52;95220.47;;;13.55;100.00
23363;BME280;11853;48.080;11.960;2023-05-25T08:10:18;95222.44;;;13.53;100.00
23363;BME280;11853;48.080;11.960;2023-05-25T08:12:43;95230.50;;;13.69;100.00
23363;BME280;11853;48.080;11.960;2023-05-25T08:15:09;95221.19;;;13.82;100.00
23363;BME280;11853;48.080;11.960;2023-05-25T08:17:34;95230.38;;;13.87;100.00
23363;BME280;11853;48.080;11.960;2023-05-25T08:20:00;95236.88;;;13.85;100.00
23363;BME280;11853;48.080;11.960;2023-05-25T08:22:26;95235.53;;;13.81;100.00
23363;BME280;11853;48.080;11.960;2023-05-25T08:24:51;95232.41;;;13.85;100.00
23363;BME280;11853;48.080;11.960;2023-05-25T08:27:17;95238.38;;;13.87;100.00
23363;BME280;11853;48.080;11.960;2023-05-25T08:29:42;95242.09;;;13.94;100.00
23363;BME280;11853;48.080;11.960;2023-05-25T08:32:08;95240.25;;;14.03;100.00
23363;BME280;11853;48.080;11.960;2023-05-25T08:34:33;95245.28;;;14.06;100.00
23363;BME280;11853;48.080;11.960;2023-05-25T08:36:59;95251.31;;;14.16;100.00
23363;BME280;11853;48.080;11.960;2023-05-25T08:39:24;95249.63;;;14.24;100.00
23363;BME280;11853;48.080;11.960;2023-05-25T08:41:51;95255.81;;;14.32;100.00
23363;BME280;11853;48.080;11.960;2023-05-25T08:44:17;95255.00;;;14.40;100.00
23363;BME280;11853;48.080;11.960;2023-05-25T08:46:47;95251.78;;;14.36;100.00
23363;BME280;11853;48.080;11.960;2023-05-25T08:49:14;95243.97;;;14.27;100.00
23363;BME280;11853;48.080;11.960;2023-05-25T08:51:51;95239.97;;;14.31;100.00
23363;BME280;11853;48.080;11.960;2023-05-25T08:54:19;95242.31;;;14.34;100.00
23363;BME280;11853;48.080;11.960;2023-05-25T08:56:57;95253.97;;;14.16;100.00
23363;BME280;11853;48.080;11.960;2023-05-25T08:59:30;95261.97;;;14.16;100.00
23363;BME280;11853;48.080;11.960;2023-05-25T09:04:51;95255.31;;;14.29;100.00
23363;BME280;11853;48.080;11.960;2023-05-25T09:07:16;95258.16;;;14.43;100.00
23363;BME280;11853;48.080;11.960;2023-05-25T09:09:44;95262.03;;;14.57;100.00
23363;BME280;11853;48.080;11.960;2023-05-25T09:12:10;95256.34;;;14.52;100.00
23363;BME280;11853;48.080;11.960;2023-05-25T09:14:37;95265.03;;;14.62;100.00
23363;BME280;11853;48.080;11.960;2023-05-25T09:17:10;95262.03;;;14.66;100.00
23363;BME280;11853;48.080;11.960;2023-05-25T09:19:36;95264.03;;;14.63;100.00
23363;BME280;11853;48.080;11.960;2023-05-25T09:22:02;95268.03;;;14.84;100.00
23363;BME280;11853;48.080;11.960;2023-05-25T09:24:28;95264.84;;;14.80;100.00
23363;BME280;11853;48.080;11.960;2023-05-25T09:26:53;95262.69;;;14.76;100.00
23363;BME280;11853;48.080;11.960;2023-05-25T09:29:19;95273.69;;;14.73;100.00
23363;BME280;11853;48.080;11.960;2023-05-25T09:31:45;95272.72;;;14.66;100.00
23363;BME280;11853;48.080;11.960;2023-05-25T09:34:14;95270.69;;;14.68;100.00
23363;BME280;11853;48.080;11.960;2023-05-25T09:36:40;95274.22;;;14.68;100.00
23363;BME280;11853;48.080;11.960;2023-05-25T09:39:10;95278.69;;;14.68;100.00
23363;BME280;11853;48.080;11.960;2023-05-25T09:41:36;95273.06;;;14.62;100.00
23363;BME280;11853;48.080;11.960;2023-05-25T09:44:05;95280.41;;;14.69;100.00
23363;BME280;11853;48.080;11.960;2023-05-25T09:46:31;95285.22;;;14.81;100.00
23363;BME280;11853;48.080;11.960;2023-05-25T09:49:00;95279.53;;;14.76;100.00
23363;BME280;11853;48.080;11.960;2023-05-25T09:51:27;95285.88;;;14.83;100.00
23363;BME280;11853;48.080;11.960;2023-05-25T09:53:54;95280.34;;;15.01;100.00
23363;BME280;11853;48.080;11.960;2023-05-25T09:56:20;95291.22;;;15.08;100.00
23363;BME280;11853;48.080;11.960;2023-05-25T09:58:47;95286.56;;;14.94;100.00
23363;BME280;11853;48.080;11.960;2023-05-25T10:01:16;95286.38;;;14.95;100.00
23363;BME280;11853;48.080;11.960;2023-05-25T10:03:45;95286.88;;;14.99;100.00
23363;BME280;11853;48.080;11.960;2023-05-25T10:06:13;95287.19;;;15.04;100.00
23363;BME280;11853;48.080;11.960;2023-05-25T10:08:42;95288.03;;;15.13;100.00
23363;BME280;11853;48.080;11.960;2023-05-25T10:11:10;95288.69;;;15.15;100.00
23363;BME280;11853;48.080;11.960;2023-05-25T10:13:37;95300.41;;;15.05;100.00
23363;BME280;11853;48.080;11.960;2023-05-25T10:16:03;95294.88;;;15.07;100.00
23363;BME280;11853;48.080;11.960;2023-05-25T10:18:31;95292.88;;;15.17;100.00
23363;BME280;11853;48.080;11.960;2023-05-25T10:21:02;95285.81;;;15.24;100.00
23363;BME280;11853;48.080;11.960;2023-05-25T10:23:39;95294.66;;;15.33;100.00
23363;BME280;11853;48.080;11.960;2023-05-25T10:26:08;95284.66;;;15.19;100.00
23363;BME280;11853;48.080;11.960;2023-05-25T10:28:38;95298.00;;;15.27;100.00
23363;BME280;11853;48.080;11.960;2023-05-25T10:31:05;95290.47;;;15.30;100.00
23363;BME280;11853;48.080;11.960;2023-05-25T10:33:31;95294.66;;;15.33;100.00
23363;BME280;11853;48.080;11.960;2023-05-25T10:35:59;95294.50;;;15.35;100.00
23363;BME280;11853;48.080;11.960;2023-05-25T10:38:26;95291.63;;;15.36;100.00
23363;BME280;11853;48.080;11.960;2023-05-25T10:40:53;95304.16;;;15.52;100.00
23363;BME280;11853;48.080;11.960;2023-05-25T10:43:19;95302.31;;;15.44;100.00
23363;BME280;11853;48.080;11.960;2023-05-25T10:45:46;95292.50;;;15.37;100.00
23363;BME280;11853;48.080;11.960;2023-05-25T10:48:13;95282.41;;;15.47;100.00
23363;BME280;11853;48.080;11.960;2023-05-25T10:50:39;95285.56;;;15.59;100.00
23363;BME280;11853;48.080;11.960;2023-05-25T10:53:06;95275.91;;;15.49;100.00
23363;BME280;11853;48.080;11.960;2023-05-25T10:58:12;95279.84;;;15.78;100.00
23363;BME280;11853;48.080;11.960;2023-05-25T11:00:39;95287.16;;;15.84;100.00
23363;BME280;11853;48.080;11.960;2023-05-25T11:03:05;95285.13;;;15.94;100.00
23363;BME280;11853;48.080;11.960;2023-05-25T11:05:32;95285.06;;;16.03;100.00
23363;BME280;11853;48.080;11.960;2023-05-25T11:08:06;95278.13;;;16.16;100.00
23363;BME280;11853;48.080;11.960;2023-05-25T11:16:15;95282.84;;;16.37;100.00
23363;BME280;11853;48.080;11.960;2023-05-25T11:18:43;95287.56;;;16.35;100.00
23363;BME280;11853;48.080;11.960;2023-05-25T11:26:21;95287.03;;;16.40;100.00
23363;BME280;11853;48.080;11.960;2023-05-25T11:28:49;95287.97;;;16.47;100.00
23363;BME280;11853;48.080;11.960;2023-05-25T11:31:15;95285.06;;;16.57;100.00
23363;BME280;11853;48.080;11.960;2023-05-25T11:33:43;95293.75;;;16.59;100.00
23363;BME280;11853;48.080;11.960;2023-05-25T11:36:09;95274.28;;;16.65;100.00
23363;BME280;11853;48.080;11.960;2023-05-25T11:38:40;95278.28;;;16.69;100.00
23363;BME280;11853;48.080;11.960;2023-05-25T11:41:19;95282.09;;;16.75;100.00
23363;BME280;11853;48.080;11.960;2023-05-25T11:43:47;95270.13;;;16.85;100.00
23363;BME280;11853;48.080;11.960;2023-05-25T11:46:15;95270.53;;;16.74;99.80
23363;BME280;11853;48.080;11.960;2023-05-25T11:48:45;95268.63;;;16.60;100.00
23363;BME280;11853;48.080;11.960;2023-05-25T11:51:15;95270.22;;;16.69;100.00
23363;BME280;11853;48.080;11.960;2023-05-25T11:53:44;95268.44;;;16.84;100.00
23363;BME280;11853;48.080;11.960;2023-05-25T11:56:12;95259.16;;;17.10;100.00
23363;BME280;11853;48.080;11.960;2023-05-25T11:58:38;95256.31;;;17.11;100.00
23363;BME280;11853;48.080;11.960;2023-05-25T12:01:16;95262.34;;;17.28;99.25
23363;BME280;11853;48.080;11.960;2023-05-25T12:03:43;95261.59;;;17.20;99.78
23363;BME280;11853;48.080;11.960;2023-05-25T12:06:22;95264.00;;;17.29;99.51
23363;BME280;11853;48.080;11.960;2023-05-25T12:08:48;95253.19;;;17.23;100.00
23363;BME280;11853;48.080;11.960;2023-05-25T12:11:14;95257.81;;;17.29;98.01
23363;BME280;11853;48.080;11.960;2023-05-25T12:13:40;95246.06;;;17.15;100.00
23363;BME280;11853;48.080;11.960;2023-05-25T12:16:05;95257.69;;;17.22;100.00
23363;BME280;11853;48.080;11.960;2023-05-25T12:18:31;95255.31;;;17.27;100.00
23363;BME280;11853;48.080;11.960;2023-05-25T12:20:57;95257.06;;;17.35;100.00
23363;BME280;11853;48.080;11.960;2023-05-25T12:23:23;95257.34;;;17.55;99.00
23363;BME280;11853;48.080;11.960;2023-05-25T12:25:48;95254.47;;;17.56;98.66
23363;BME280;11853;48.080;11.960;2023-05-25T12:28:16;95255.94;;;17.59;99.27
23363;BME280;11853;48.080;11.960;2023-05-25T12:30:42;95254.38;;;17.50;99.27
23363;BME280;11853;48.080;11.960;2023-05-25T12:33:11;95259.00;;;17.56;98.79
23363;BME280;11853;48.080;11.960;2023-05-25T12:35:48;95253.53;;;17.64;98.72
23363;BME280;11853;48.080;11.960;2023-05-25T12:38:18;95251.81;;;17.71;98.57
23363;BME280;11853;48.080;11.960;2023-05-25T12:40:44;95255.09;;;17.73;99.89
23363;BME280;11853;48.080;11.960;2023-05-25T12:43:09;95256.41;;;17.77;99.65
23363;BME280;11853;48.080;11.960;2023-05-25T12:45:42;95265.59;;;17.83;100.00
23363;BME280;11853;48.080;11.960;2023-05-25T12:48:08;95261.72;;;17.86;99.80
23363;BME280;11853;48.080;11.960;2023-05-25T12:50:34;95253.66;;;17.86;99.37
23363;BME280;11853;48.080;11.960;2023-05-25T12:53:01;95262.44;;;17.94;97.74
23363;BME280;11853;48.080;11.960;2023-05-25T12:55:28;95263.16;;;17.88;96.18
23363;BME280;11853;48.080;11.960;2023-05-25T12:58:02;95252.81;;;17.85;97.44
23363;BME280;11853;48.080;11.960;2023-05-25T13:00:37;95248.28;;;17.86;99.30
23363;BME280;11853;48.080;11.960;2023-05-25T13:03:07;95240.09;;;17.94;98.72